createdAt,value
2018-07-13T00:00:36.105Z,83.20
2018-07-13T00:03:04.935Z,82.40
2018-07-13T00:05:33.731Z,82.40
2018-07-13T00:08:02.495Z,82.60
2018-07-13T00:10:31.240Z,82.40
2018-07-13T00:13:00.020Z,82.20
2018-07-13T00:15:28.802Z,81.90
2018-07-13T00:17:57.594Z,82.00
2018-07-13T00:22:54.927Z,82.00
2018-07-13T00:25:23.729Z,81.90
2018-07-13T00:27:52.489Z,81.80
2018-07-13T00:30:21.246Z,81.70
2018-07-13T00:32:50.008Z,81.60
2018-07-13T00:35:18.798Z,81.60
2018-07-13T00:40:16.019Z,81.90
2018-07-13T00:42:44.804Z,81.80
2018-07-13T00:45:13.576Z,81.80
2018-07-13T00:47:42.332Z,81.90
2018-07-13T00:50:11.103Z,82.20
2018-07-13T00:52:39.851Z,81.80
2018-07-13T00:55:08.584Z,82.10
2018-07-13T00:57:37.375Z,82.00
2018-07-13T01:00:06.155Z,82.30
2018-07-13T01:02:34.911Z,82.00
2018-07-13T01:05:03.699Z,82.10
2018-07-13T01:07:32.483Z,82.10
2018-07-13T01:10:01.223Z,82.20
2018-07-13T01:12:29.992Z,82.30
2018-07-13T01:14:58.767Z,81.80
2018-07-13T01:17:27.533Z,82.50
2018-07-13T01:19:56.321Z,82.60
2018-07-13T01:22:25.074Z,82.60
2018-07-13T01:27:25.545Z,82.60
2018-07-13T01:29:54.340Z,82.60
2018-07-13T01:32:23.115Z,82.80
2018-07-13T01:34:51.893Z,83.00
2018-07-13T01:39:49.088Z,83.50
2018-07-13T01:42:17.834Z,83.20
2018-07-13T01:44:46.618Z,83.00
2018-07-13T01:47:15.415Z,83.30
2018-07-13T01:49:44.238Z,82.70
2018-07-13T01:52:12.989Z,82.50
2018-07-13T01:54:41.747Z,82.60
2018-07-13T01:57:10.524Z,82.40
2018-07-13T01:59:39.340Z,82.50
2018-07-13T02:02:08.066Z,82.80
2018-07-13T02:04:37.849Z,82.80
2018-07-13T02:07:06.601Z,82.80
2018-07-13T02:09:35.344Z,82.80
2018-07-13T02:14:32.629Z,82.40
2018-07-13T02:17:01.376Z,82.40
2018-07-13T02:19:30.182Z,82.50
2018-07-13T02:24:27.423Z,82.40
2018-07-13T02:26:56.199Z,82.30
2018-07-13T02:29:25.026Z,82.20
2018-07-13T02:31:53.800Z,82.20
2018-07-13T02:34:22.531Z,82.10
2018-07-13T02:36:51.470Z,82.10
2018-07-13T02:39:20.208Z,82.10
2018-07-13T02:41:48.999Z,82.00
2018-07-13T02:44:17.762Z,82.10
2018-07-13T02:46:46.556Z,82.20
2018-07-13T02:54:12.315Z,82.30
2018-07-13T02:56:41.067Z,82.30
2018-07-13T02:59:09.854Z,82.30
2018-07-13T03:01:38.647Z,82.50
2018-07-13T03:04:07.427Z,82.40
2018-07-13T03:06:36.182Z,82.40
2018-07-13T03:09:07.477Z,82.60
2018-07-13T03:11:36.252Z,82.70
2018-07-13T03:14:05.637Z,82.70
2018-07-13T03:16:34.423Z,82.60
2018-07-13T03:19:03.230Z,82.40
2018-07-13T03:21:31.998Z,82.50
2018-07-13T03:24:00.744Z,82.40
2018-07-13T03:28:58.279Z,82.50
2018-07-13T03:31:27.160Z,82.40
2018-07-13T03:33:55.948Z,82.30
2018-07-13T03:36:24.683Z,82.00
2018-07-13T03:38:53.487Z,82.10
2018-07-13T03:43:50.734Z,82.10
2018-07-13T03:46:19.504Z,82.20
2018-07-13T03:48:48.288Z,81.70
2018-07-13T03:51:17.049Z,81.30
2018-07-13T03:53:45.824Z,82.00
2018-07-13T03:56:14.606Z,80.30
2018-07-13T03:58:43.346Z,80.20
2018-07-13T04:01:12.115Z,80.50
2018-07-13T04:03:40.866Z,79.70
2018-07-13T04:08:38.079Z,79.00
2018-07-13T04:11:06.883Z,78.90
2018-07-13T04:13:35.649Z,78.10
2018-07-13T04:16:04.466Z,78.20
2018-07-13T04:18:33.249Z,78.00
2018-07-13T04:21:02.022Z,78.10
2018-07-13T04:23:30.806Z,78.30
2018-07-13T04:25:59.598Z,78.20
2018-07-13T04:28:28.454Z,77.80
2018-07-13T04:33:25.680Z,78.20
2018-07-13T04:35:54.478Z,78.00
2018-07-13T04:38:23.235Z,77.80
2018-07-13T04:40:52.040Z,78.50
2018-07-13T04:43:20.809Z,77.50
2018-07-13T04:45:49.576Z,77.80
2018-07-13T04:48:18.348Z,77.70
2018-07-13T04:53:15.619Z,77.80
2018-07-13T04:58:13.471Z,78.00
2018-07-13T05:00:42.324Z,78.00
2018-07-13T05:03:11.078Z,78.20
2018-07-13T05:08:08.424Z,77.90
2018-07-13T05:10:37.174Z,78.20
2018-07-13T05:13:05.958Z,77.90
2018-07-13T05:15:34.733Z,77.60
2018-07-13T05:18:03.532Z,77.60
2018-07-13T05:20:32.276Z,77.40
2018-07-13T05:23:01.454Z,77.50
2018-07-13T05:25:30.235Z,77.90
2018-07-13T05:27:59.007Z,77.90
2018-07-13T05:30:27.816Z,77.90
2018-07-13T05:32:56.562Z,77.90
2018-07-13T05:35:25.324Z,77.80
2018-07-13T05:37:54.132Z,77.90
2018-07-13T05:40:22.959Z,78.30
2018-07-13T05:42:51.733Z,78.10
2018-07-13T05:45:20.490Z,78.20
2018-07-13T05:47:49.291Z,77.80
2018-07-13T05:50:18.086Z,77.40
2018-07-13T05:52:46.858Z,77.80
2018-07-13T06:00:12.615Z,78.20
2018-07-13T06:02:41.405Z,77.80
2018-07-13T06:05:16.508Z,77.80
2018-07-13T06:07:45.331Z,77.70
2018-07-13T06:10:14.107Z,77.80
2018-07-13T06:15:18.150Z,77.90
2018-07-13T06:17:46.931Z,78.10
2018-07-13T06:20:15.696Z,77.60
2018-07-13T06:22:44.463Z,77.40
2018-07-13T06:25:13.242Z,77.80
2018-07-13T06:27:42.077Z,77.20
2018-07-13T06:30:10.874Z,77.40
2018-07-13T06:32:39.593Z,77.70
2018-07-13T06:35:08.446Z,77.40
2018-07-13T06:37:37.223Z,77.40
2018-07-13T06:40:06.012Z,77.90
2018-07-13T06:42:34.756Z,77.70
2018-07-13T06:45:03.564Z,77.90
2018-07-13T06:47:32.320Z,78.00
2018-07-13T06:50:01.143Z,78.20
2018-07-13T06:52:29.955Z,78.50
2018-07-13T06:54:58.738Z,78.20
2018-07-13T06:57:39.107Z,78.50
2018-07-13T07:01:13.067Z,78.40
2018-07-13T07:04:48.167Z,78.30
2018-07-13T07:07:22.060Z,78.50
2018-07-13T07:09:53.314Z,78.80
2018-07-13T07:12:39.204Z,79.30
2018-07-13T07:15:07.830Z,79.00
2018-07-13T07:17:36.698Z,78.20
2018-07-13T07:20:05.501Z,78.20
2018-07-13T07:22:34.310Z,79.10
2018-07-13T07:25:03.090Z,78.30
2018-07-13T07:27:31.873Z,78.10
2018-07-13T07:30:01.090Z,77.90
2018-07-13T07:32:29.864Z,78.30
2018-07-13T07:34:58.676Z,78.20
2018-07-13T07:37:27.472Z,78.40
2018-07-13T07:39:56.288Z,78.40
2018-07-13T07:42:25.058Z,78.20
2018-07-13T07:44:53.867Z,78.00
2018-07-13T07:47:22.625Z,78.30
2018-07-13T07:49:51.445Z,77.90
2018-07-13T07:52:20.251Z,77.70
2018-07-13T07:54:48.999Z,78.10
2018-07-13T07:57:17.894Z,78.20
2018-07-13T07:59:46.686Z,78.40
2018-07-13T08:02:15.663Z,78.10
2018-07-13T08:04:44.570Z,78.20
2018-07-13T08:07:13.686Z,78.10
2018-07-13T08:09:42.215Z,78.60
2018-07-13T08:12:11.015Z,78.70
2018-07-13T08:14:39.895Z,78.90
2018-07-13T08:17:08.652Z,78.50
2018-07-13T08:19:37.499Z,78.90
2018-07-13T08:22:12.235Z,78.80
2018-07-13T08:24:41.023Z,78.90
2018-07-13T08:27:14.331Z,79.20
2018-07-13T08:29:43.094Z,79.70
2018-07-13T08:32:11.891Z,79.80
2018-07-13T08:34:40.686Z,80.20
2018-07-13T08:37:09.474Z,80.20
2018-07-13T08:39:38.385Z,80.00
2018-07-13T08:42:07.442Z,80.10
2018-07-13T08:44:36.207Z,80.10
2018-07-13T08:47:05.037Z,80.10
2018-07-13T08:49:33.815Z,80.40
2018-07-13T08:52:02.609Z,81.50
2018-07-13T08:54:31.448Z,81.70
2018-07-13T08:57:00.803Z,82.20
2018-07-13T08:59:29.789Z,82.40
2018-07-13T09:01:58.570Z,81.70
2018-07-13T09:04:27.446Z,82.10
2018-07-13T09:06:56.237Z,82.50
2018-07-13T09:09:25.030Z,82.30
2018-07-13T09:11:53.961Z,81.30
2018-07-13T09:14:22.711Z,82.00
2018-07-13T09:16:51.757Z,81.80
2018-07-13T09:19:20.934Z,82.00
2018-07-13T09:21:49.697Z,81.60
2018-07-13T09:24:18.450Z,82.20
2018-07-13T09:26:47.257Z,82.40
2018-07-13T09:29:16.151Z,82.40
2018-07-13T09:31:45.056Z,81.40
2018-07-13T09:34:13.934Z,81.30
2018-07-13T09:41:39.666Z,81.80
2018-07-13T09:46:37.054Z,81.10
2018-07-13T09:49:06.117Z,82.00
2018-07-13T09:51:34.977Z,81.90
2018-07-13T09:54:03.803Z,82.00
2018-07-13T09:56:32.646Z,81.40
2018-07-13T09:59:01.412Z,80.90
2018-07-13T10:01:30.201Z,81.20
2018-07-13T10:03:59.082Z,81.30
2018-07-13T10:06:27.958Z,81.30
2018-07-13T10:08:56.846Z,80.30
2018-07-13T10:13:54.180Z,80.00
2018-07-13T10:16:23.017Z,79.00
2018-07-13T10:21:20.275Z,79.20
2018-07-13T10:23:49.032Z,79.50
2018-07-13T10:26:22.083Z,79.80
2018-07-13T10:28:50.859Z,80.00
2018-07-13T10:31:19.620Z,80.20
2018-07-13T10:33:48.360Z,79.30
2018-07-13T10:36:18.272Z,77.80
2018-07-13T10:38:47.048Z,78.20
2018-07-13T10:41:15.814Z,77.50
2018-07-13T10:46:13.249Z,76.00
2018-07-13T10:48:42.203Z,75.80
2018-07-13T10:51:11.081Z,75.50
2018-07-13T10:53:39.951Z,75.50
2018-07-13T10:56:08.703Z,75.30
2018-07-13T10:58:37.547Z,74.60
2018-07-13T11:01:06.460Z,73.90
2018-07-13T11:03:35.266Z,74.60
2018-07-13T11:06:04.064Z,74.40
2018-07-13T11:08:34.241Z,74.00
2018-07-13T11:11:03.828Z,74.00
2018-07-13T11:13:33.178Z,73.60
2018-07-13T11:16:02.222Z,74.10
2018-07-13T11:18:31.406Z,73.90
2018-07-13T11:21:00.569Z,73.60
2018-07-13T11:23:29.414Z,74.00
2018-07-13T11:25:58.232Z,73.60
2018-07-13T11:28:27.129Z,73.90
2018-07-13T11:30:55.877Z,73.30
2018-07-13T11:33:24.657Z,73.90
2018-07-13T11:35:53.420Z,73.30
2018-07-13T11:38:22.221Z,73.40
2018-07-13T11:40:50.941Z,73.40
2018-07-13T11:44:48.963Z,73.40
2018-07-13T11:47:17.703Z,74.10
2018-07-13T11:49:46.616Z,73.10
2018-07-13T11:54:43.885Z,72.60
2018-07-13T11:59:41.472Z,70.70
2018-07-13T12:02:10.240Z,70.40
2018-07-13T12:07:07.529Z,68.60
2018-07-13T12:09:36.317Z,66.90
2018-07-13T12:12:05.100Z,66.10
2018-07-13T12:14:33.899Z,66.00
2018-07-13T12:17:02.634Z,64.50
2018-07-13T12:19:31.375Z,64.20
2018-07-13T12:22:00.153Z,64.70
2018-07-13T12:26:57.460Z,65.40
2018-07-13T12:29:26.152Z,66.70
2018-07-13T12:31:54.917Z,66.70
2018-07-13T12:34:23.665Z,66.60
2018-07-13T12:36:52.454Z,66.70
2018-07-13T12:41:50.606Z,66.50
2018-07-13T12:44:19.392Z,66.50
2018-07-13T12:46:48.155Z,67.10
2018-07-13T12:51:45.417Z,64.80
2018-07-13T12:54:14.342Z,63.80
2018-07-13T12:56:43.081Z,64.60
2018-07-13T12:59:11.806Z,63.20
2018-07-13T13:01:40.903Z,64.10
2018-07-13T13:04:09.653Z,64.90
2018-07-13T13:09:07.143Z,66.20
2018-07-13T13:11:35.856Z,65.50
2018-07-13T13:14:04.661Z,65.80
2018-07-13T13:16:33.410Z,65.00
2018-07-13T13:21:30.719Z,61.70
2018-07-13T13:23:59.457Z,62.10
2018-07-13T13:26:28.239Z,61.80
2018-07-13T13:28:57.006Z,61.60
2018-07-13T13:31:25.853Z,62.10
2018-07-13T13:33:54.589Z,61.60
2018-07-13T13:36:23.342Z,61.30
2018-07-13T13:38:52.076Z,60.70
2018-07-13T13:41:20.823Z,59.40
2018-07-13T13:43:49.624Z,59.00
2018-07-13T13:46:18.417Z,58.70
2018-07-13T13:48:47.181Z,58.70
2018-07-13T13:51:15.915Z,58.90
2018-07-13T13:53:44.900Z,59.40
2018-07-13T13:56:13.595Z,59.30
2018-07-13T13:58:42.333Z,59.20
2018-07-13T14:01:11.138Z,59.40
2018-07-13T14:03:39.935Z,58.20
2018-07-13T14:06:08.701Z,58.10
2018-07-13T14:08:37.537Z,58.60
2018-07-13T14:11:06.402Z,58.10
2018-07-13T14:13:35.156Z,58.70
2018-07-13T14:16:03.912Z,58.40
2018-07-13T14:18:32.655Z,58.90
2018-07-13T14:21:01.436Z,57.50
2018-07-13T14:23:30.228Z,56.50
2018-07-13T14:25:58.971Z,56.00
2018-07-13T14:30:56.207Z,56.30
2018-07-13T14:33:24.969Z,56.10
2018-07-13T14:35:53.735Z,55.80
2018-07-13T14:38:22.481Z,55.90
2018-07-13T14:40:51.252Z,55.60
2018-07-13T14:43:19.998Z,54.90
2018-07-13T14:45:48.742Z,53.20
2018-07-13T14:48:17.503Z,53.30
2018-07-13T14:50:46.243Z,53.90
2018-07-13T14:53:15.075Z,54.00
2018-07-13T14:55:43.855Z,54.30
2018-07-13T14:58:12.563Z,54.00
2018-07-13T15:00:41.378Z,52.50
2018-07-13T15:03:10.123Z,53.40
2018-07-13T15:05:38.899Z,53.20
2018-07-13T15:08:07.693Z,54.10
2018-07-13T15:10:36.602Z,53.80
2018-07-13T15:13:05.371Z,54.30
2018-07-13T15:15:34.142Z,53.80
2018-07-13T15:20:31.432Z,54.50
2018-07-13T15:23:00.318Z,54.40
2018-07-13T15:25:29.202Z,53.90
2018-07-13T15:27:58.096Z,53.80
2018-07-13T15:30:26.841Z,52.40
2018-07-13T15:32:55.635Z,52.30
2018-07-13T15:35:24.419Z,52.10
2018-07-13T15:37:53.337Z,50.90
2018-07-13T15:40:22.167Z,50.70
2018-07-13T15:42:50.979Z,51.70
2018-07-13T15:45:19.731Z,52.60
2018-07-13T15:47:48.455Z,52.60
2018-07-13T15:50:17.333Z,53.20
2018-07-13T15:52:46.060Z,53.40
2018-07-13T15:55:14.833Z,53.90
2018-07-13T15:57:43.545Z,54.10
2018-07-13T16:00:12.324Z,54.40
2018-07-13T16:02:41.049Z,54.90
2018-07-13T16:05:09.809Z,55.10
2018-07-13T16:07:38.633Z,55.60
2018-07-13T16:10:07.363Z,55.40
2018-07-13T16:12:36.203Z,53.80
2018-07-13T16:15:04.999Z,52.90
2018-07-13T16:17:33.857Z,52.90
2018-07-13T16:20:02.638Z,51.90
2018-07-13T16:22:31.444Z,49.90
2018-07-13T16:25:00.251Z,49.20
2018-07-13T16:27:29.020Z,48.70
2018-07-13T16:29:57.828Z,48.80
2018-07-13T16:32:26.561Z,48.70
2018-07-13T16:34:55.298Z,48.60
2018-07-13T16:37:24.030Z,48.80
2018-07-13T16:39:52.787Z,49.30
2018-07-13T16:42:21.519Z,49.70
2018-07-13T16:44:50.378Z,50.00
2018-07-13T16:47:19.147Z,50.50
2018-07-13T16:49:47.959Z,51.00
2018-07-13T16:52:16.685Z,51.40
2018-07-13T16:54:45.454Z,52.10
2018-07-13T16:57:14.287Z,51.40
2018-07-13T17:04:40.074Z,49.90
2018-07-13T17:07:08.892Z,49.30
2018-07-13T17:09:37.600Z,49.60
2018-07-13T17:12:06.405Z,48.50
2018-07-13T17:19:32.103Z,47.30
2018-07-13T17:22:00.870Z,46.80
2018-07-13T17:24:29.611Z,46.10
2018-07-13T17:26:58.344Z,47.00
2018-07-13T17:29:27.124Z,48.00
2018-07-13T17:31:55.881Z,47.70
2018-07-13T17:34:24.636Z,47.80
2018-07-13T17:36:53.375Z,47.70
2018-07-13T17:41:50.656Z,49.40
2018-07-13T17:46:48.026Z,50.80
2018-07-13T17:49:16.974Z,51.30
2018-07-13T17:51:45.646Z,51.50
2018-07-13T17:54:14.568Z,51.60
2018-07-13T17:56:43.390Z,51.90
2018-07-13T17:59:12.190Z,52.20
2018-07-13T18:01:41.033Z,52.40
2018-07-13T18:04:09.778Z,52.50
2018-07-13T18:06:38.527Z,52.90
2018-07-13T18:09:07.858Z,53.00
2018-07-13T18:11:36.590Z,53.10
2018-07-13T18:14:05.346Z,53.00
2018-07-13T18:16:34.120Z,53.10
2018-07-13T18:19:02.939Z,53.10
2018-07-13T18:21:31.737Z,53.00
2018-07-13T18:24:00.668Z,52.70
2018-07-13T18:28:57.894Z,51.90
2018-07-13T18:31:26.740Z,52.10
2018-07-13T18:36:24.000Z,52.30
2018-07-13T18:41:21.205Z,52.00
2018-07-13T18:43:50.032Z,52.70
2018-07-13T18:46:18.785Z,51.90
2018-07-13T18:48:47.641Z,52.30
2018-07-13T18:53:44.983Z,52.60
2018-07-13T18:56:13.762Z,52.70
2018-07-13T18:58:42.573Z,52.90
2018-07-13T19:01:11.267Z,53.00
2018-07-13T19:06:08.550Z,52.60
2018-07-13T19:11:06.303Z,52.80
2018-07-13T19:13:35.138Z,52.80
2018-07-13T19:16:04.047Z,52.90
2018-07-13T19:18:32.849Z,53.20
2018-07-13T19:21:01.599Z,53.50
2018-07-13T19:23:30.354Z,54.10
2018-07-13T19:25:59.089Z,54.30
2018-07-13T19:28:27.856Z,54.60
2018-07-13T19:30:56.727Z,55.00
2018-07-13T19:33:25.464Z,56.10
2018-07-13T19:35:54.500Z,56.70
2018-07-13T19:38:23.294Z,56.70
2018-07-13T19:40:52.048Z,57.00
2018-07-13T19:43:20.799Z,57.40
2018-07-13T19:45:49.579Z,57.70
2018-07-13T19:50:46.814Z,58.10
2018-07-13T19:53:15.541Z,58.50
2018-07-13T19:58:12.787Z,59.20
2018-07-13T20:00:41.679Z,59.30
2018-07-13T20:03:10.607Z,59.50
2018-07-13T20:05:39.376Z,60.20
2018-07-13T20:08:08.155Z,60.30
2018-07-13T20:10:36.866Z,60.70
2018-07-13T20:13:05.807Z,60.70
2018-07-13T20:15:34.542Z,60.90
2018-07-13T20:18:03.332Z,61.10
2018-07-13T20:20:32.174Z,61.30
2018-07-13T20:23:00.913Z,61.70
2018-07-13T20:25:29.662Z,62.00
2018-07-13T20:27:58.487Z,62.30
2018-07-13T20:32:55.745Z,62.60
2018-07-13T20:35:24.837Z,62.70
2018-07-13T20:37:53.564Z,62.80
2018-07-13T20:40:22.373Z,62.80
2018-07-13T20:42:51.465Z,62.90
2018-07-13T20:45:20.261Z,62.90
2018-07-13T20:47:49.417Z,63.10
2018-07-13T20:50:18.174Z,63.10
2018-07-13T20:52:46.933Z,63.20
2018-07-13T20:55:15.651Z,63.40
2018-07-13T20:57:44.430Z,63.80
2018-07-13T21:00:13.239Z,63.90
2018-07-13T21:05:10.532Z,64.10
2018-07-13T21:07:39.266Z,64.30
2018-07-13T21:10:08.404Z,64.50
2018-07-13T21:12:37.148Z,64.50
2018-07-13T21:15:05.962Z,64.80
2018-07-13T21:17:34.728Z,65.20
2018-07-13T21:20:03.495Z,65.30
2018-07-13T21:22:32.359Z,65.80
2018-07-13T21:25:01.249Z,65.80
2018-07-13T21:27:30.079Z,65.50
2018-07-13T21:29:58.815Z,65.30
2018-07-13T21:34:56.025Z,65.20
2018-07-13T21:37:24.776Z,65.10
2018-07-13T21:39:53.574Z,65.00
2018-07-13T21:42:22.365Z,65.00
2018-07-13T21:44:51.139Z,65.10
2018-07-13T21:49:48.829Z,64.90
2018-07-13T21:54:45.978Z,65.10
2018-07-13T21:57:14.747Z,65.20
2018-07-13T21:59:43.669Z,65.40
2018-07-13T22:09:37.836Z,65.90
2018-07-13T22:12:06.585Z,66.10
2018-07-13T22:17:03.814Z,66.60
2018-07-13T22:19:32.742Z,66.90
2018-07-13T22:22:01.456Z,67.00
2018-07-13T22:24:30.231Z,67.00
2018-07-13T22:26:58.982Z,67.00
2018-07-13T22:29:27.717Z,67.00
2018-07-13T22:31:56.548Z,67.10
2018-07-13T22:34:25.295Z,67.20
2018-07-13T22:36:54.031Z,67.30
2018-07-13T22:39:22.769Z,67.40
2018-07-13T22:41:51.579Z,67.70
2018-07-13T22:44:20.330Z,67.90
2018-07-13T22:46:49.068Z,68.10
2018-07-13T22:49:17.910Z,68.20
2018-07-13T22:51:46.702Z,68.40
2018-07-13T22:54:15.504Z,68.50
2018-07-13T22:56:44.269Z,68.60
2018-07-13T22:59:13.079Z,68.70
2018-07-13T23:01:41.819Z,68.60
2018-07-13T23:04:10.560Z,68.60
2018-07-13T23:06:39.325Z,68.80
2018-07-13T23:14:05.412Z,68.50
2018-07-13T23:16:34.220Z,68.50
2018-07-13T23:19:02.941Z,68.70
2018-07-13T23:21:32.584Z,68.70
2018-07-13T23:24:01.350Z,68.70
2018-07-13T23:28:58.563Z,68.70
2018-07-13T23:31:27.329Z,68.80
2018-07-13T23:38:53.094Z,69.40
2018-07-13T23:41:21.871Z,69.50
2018-07-13T23:43:50.588Z,69.70
2018-07-13T23:46:19.346Z,70.10
2018-07-13T23:48:48.075Z,70.20
2018-07-13T23:51:16.855Z,70.90
2018-07-13T23:53:45.603Z,70.00
